Norfolk, Virginia
Traffic Map
Current Weather Conditions
Norfolk, Virginia
Clear
Clear

Feels Like: 4°
Wind Chill: Ceiling: Unl
Heat Index: Visibility: 10mi
Dew Point: Wind: 7mph
Humidity: 89% Direction: 230° (SW)
Pressure: 30.13in Gusts: 0mph
Raw Report DataKORF 200751Z AUTO 23006KT 10SM CLR 07/05 A3013 RMK AO2 SLP201 T00670050 TSNO
Traffic Incident Summary
Active as of:
Severity:
Category:
InformationThere was an issue retrieving the traffic information for this location. Please try a different location or try again shortly.
Advertisements
Track Severe Weather on mobile